createdAt,value
2022-09-10T00:00:52.391Z,20
2022-09-10T00:01:52.370Z,20
2022-09-10T00:02:52.371Z,20
2022-09-10T00:03:52.355Z,20
2022-09-10T00:04:52.346Z,20
2022-09-10T00:05:52.332Z,20
2022-09-10T00:06:52.344Z,20
2022-09-10T00:07:52.332Z,20
2022-09-10T00:08:52.300Z,20
2022-09-10T00:09:52.314Z,16
2022-09-10T00:10:52.280Z,16
2022-09-10T00:11:52.271Z,20
2022-09-10T00:12:52.259Z,20
2022-09-10T00:13:52.247Z,20
2022-09-10T00:14:52.242Z,20
2022-09-10T00:15:52.235Z,20
2022-09-10T00:16:52.228Z,20
2022-09-10T00:17:52.207Z,16
2022-09-10T00:18:52.196Z,20
2022-09-10T00:19:52.184Z,16
2022-09-10T00:20:52.214Z,20
2022-09-10T00:21:52.167Z,16
2022-09-10T00:22:52.155Z,20
2022-09-10T00:23:52.146Z,16
2022-09-10T00:24:52.135Z,16
2022-09-10T00:25:52.123Z,16
2022-09-10T00:26:52.114Z,20
2022-09-10T00:27:52.115Z,16
2022-09-10T00:28:52.091Z,20
2022-09-10T00:29:52.129Z,20
2022-09-10T00:30:52.078Z,16
2022-09-10T00:31:52.064Z,20
2022-09-10T00:32:52.058Z,16
2022-09-10T00:33:52.036Z,20
2022-09-10T00:34:52.034Z,20
2022-09-10T00:35:52.019Z,16
2022-09-10T00:36:52.013Z,16
2022-09-10T00:37:51.997Z,20
2022-09-10T00:38:52.004Z,16
2022-09-10T00:39:51.984Z,20
2022-09-10T00:40:51.971Z,16
2022-09-10T00:41:51.961Z,16
2022-09-10T00:42:51.950Z,20
2022-09-10T00:43:51.937Z,16
2022-09-10T00:44:51.929Z,16
2022-09-10T00:45:51.923Z,20
2022-09-10T00:46:51.904Z,16
2022-09-10T00:47:51.901Z,16
2022-09-10T00:48:51.884Z,20
2022-09-10T00:49:51.876Z,16
2022-09-10T00:50:51.878Z,16
2022-09-10T00:51:51.849Z,16
2022-09-10T00:52:51.851Z,16
2022-09-10T00:53:51.904Z,16
2022-09-10T00:54:51.824Z,16
2022-09-10T00:55:51.811Z,20
2022-09-10T00:56:51.807Z,16
2022-09-10T00:57:51.788Z,20
2022-09-10T00:58:51.793Z,16
2022-09-10T00:59:51.781Z,16
2022-09-10T01:00:51.754Z,20
2022-09-10T01:01:51.763Z,20
2022-09-10T01:02:51.751Z,16
2022-09-10T01:03:51.721Z,20
2022-09-10T01:04:51.720Z,20
2022-09-10T01:05:51.713Z,16
2022-09-10T01:06:51.695Z,16
2022-09-10T01:07:51.686Z,20
2022-09-10T01:08:51.676Z,20
2022-09-10T01:09:51.667Z,20
2022-09-10T01:10:51.655Z,16
2022-09-10T01:11:51.645Z,16
2022-09-10T01:12:51.630Z,16
2022-09-10T01:13:51.625Z,16
2022-09-10T01:14:51.610Z,16
2022-09-10T01:15:51.602Z,16
2022-09-10T01:16:51.600Z,16
2022-09-10T01:17:51.582Z,16
2022-09-10T01:18:51.584Z,16
2022-09-10T01:19:51.566Z,16
2022-09-10T01:20:51.550Z,20
2022-09-10T01:21:51.536Z,16
2022-09-10T01:22:51.525Z,16
2022-09-10T01:23:51.520Z,16
2022-09-10T01:24:51.510Z,16
2022-09-10T01:25:51.509Z,16
2022-09-10T01:26:51.483Z,20
2022-09-10T01:27:51.472Z,16
2022-09-10T01:28:51.464Z,16
2022-09-10T01:29:51.472Z,16
2022-09-10T01:30:51.447Z,16
2022-09-10T01:31:51.444Z,16
2022-09-10T01:32:51.416Z,20
2022-09-10T01:33:51.416Z,16
2022-09-10T01:34:51.408Z,16
2022-09-10T01:35:51.396Z,16
2022-09-10T01:36:51.380Z,16
2022-09-10T01:37:51.371Z,20
2022-09-10T01:38:51.360Z,20
2022-09-10T01:39:51.352Z,16
2022-09-10T01:40:51.344Z,16
2022-09-10T01:41:51.330Z,20
2022-09-10T01:42:51.341Z,16
2022-09-10T01:43:51.335Z,16
2022-09-10T01:44:51.324Z,16
2022-09-10T01:45:51.287Z,16
2022-09-10T01:46:51.270Z,16
2022-09-10T01:47:51.264Z,16
2022-09-10T01:48:51.256Z,16
2022-09-10T01:49:51.239Z,16
2022-09-10T01:50:51.236Z,16
2022-09-10T01:51:51.224Z,16
2022-09-10T01:52:51.223Z,16
2022-09-10T01:53:51.200Z,16
2022-09-10T01:54:51.193Z,16
2022-09-10T01:55:51.203Z,16
2022-09-10T01:56:51.166Z,16
2022-09-10T01:57:51.155Z,16
2022-09-10T01:58:51.160Z,16
2022-09-10T01:59:51.151Z,16
2022-09-10T02:00:51.124Z,20
2022-09-10T02:01:51.121Z,16
2022-09-10T02:02:51.110Z,16
2022-09-10T02:03:51.112Z,16
2022-09-10T02:04:51.089Z,16
2022-09-10T02:05:51.079Z,16
2022-09-10T02:06:51.071Z,16
2022-09-10T02:07:51.066Z,16
2022-09-10T02:08:51.047Z,16
2022-09-10T02:09:51.041Z,20
2022-09-10T02:10:51.025Z,16
2022-09-10T02:11:51.024Z,16
2022-09-10T02:12:51.001Z,16
2022-09-10T02:13:50.998Z,20
2022-09-10T02:14:50.986Z,16
2022-09-10T02:15:50.975Z,16
2022-09-10T02:16:50.966Z,16
2022-09-10T02:17:50.959Z,20
2022-09-10T02:18:50.936Z,16
2022-09-10T02:19:50.927Z,20
2022-09-10T02:20:50.918Z,16
2022-09-10T02:21:50.912Z,20
2022-09-10T02:22:50.905Z,16
2022-09-10T02:23:50.891Z,20
2022-09-10T02:24:50.877Z,16
2022-09-10T02:25:50.864Z,20
2022-09-10T02:26:50.860Z,16
2022-09-10T02:27:50.853Z,16
2022-09-10T02:28:50.833Z,20
2022-09-10T02:29:50.827Z,16
2022-09-10T02:30:50.822Z,16
2022-09-10T02:31:50.803Z,16
2022-09-10T02:32:50.792Z,16
2022-09-10T02:33:50.776Z,16
2022-09-10T02:34:50.780Z,16
2022-09-10T02:35:50.774Z,16
2022-09-10T02:36:50.750Z,16
2022-09-10T02:37:50.740Z,16
2022-09-10T02:38:50.729Z,16
2022-09-10T02:39:50.718Z,16
2022-09-10T02:40:50.716Z,16
2022-09-10T02:41:50.704Z,16
2022-09-10T02:42:50.702Z,16
2022-09-10T02:43:50.675Z,16
2022-09-10T02:44:50.663Z,16
2022-09-10T02:45:50.662Z,16
2022-09-10T02:46:50.645Z,16
2022-09-10T02:47:50.628Z,16
2022-09-10T02:48:50.624Z,20
2022-09-10T02:49:50.607Z,16
2022-09-10T02:50:50.596Z,16
2022-09-10T02:51:50.595Z,16
2022-09-10T02:52:50.593Z,20
2022-09-10T02:53:50.567Z,16
2022-09-10T02:54:50.563Z,16
2022-09-10T02:55:50.555Z,16
2022-09-10T02:56:50.536Z,16
2022-09-10T02:57:50.530Z,16
2022-09-10T02:58:50.522Z,20
2022-09-10T02:59:50.506Z,16
2022-09-10T03:00:50.504Z,28
2022-09-10T03:01:50.496Z,28
2022-09-10T03:02:50.477Z,28
2022-09-10T03:03:50.466Z,28
2022-09-10T03:04:50.460Z,28
2022-09-10T03:05:50.467Z,28
2022-09-10T03:06:50.430Z,24
2022-09-10T03:07:50.420Z,28
2022-09-10T03:08:50.412Z,28
2022-09-10T03:09:50.402Z,24
2022-09-10T03:10:50.393Z,24
2022-09-10T03:11:50.379Z,24
2022-09-10T03:12:50.376Z,24
2022-09-10T03:13:50.358Z,24
2022-09-10T03:14:50.349Z,24
2022-09-10T03:15:50.348Z,24
2022-09-10T03:16:50.347Z,24
2022-09-10T03:17:50.321Z,24
2022-09-10T03:18:50.316Z,24
2022-09-10T03:19:50.292Z,24
2022-09-10T03:20:50.312Z,24
2022-09-10T03:21:50.283Z,24
2022-09-10T03:22:50.279Z,24
2022-09-10T03:23:50.259Z,24
2022-09-10T03:24:50.250Z,24
2022-09-10T03:25:50.231Z,24
2022-09-10T03:26:50.222Z,24
2022-09-10T03:27:50.224Z,24
2022-09-10T03:28:50.201Z,24
2022-09-10T03:29:50.208Z,24
2022-09-10T03:30:50.198Z,24
2022-09-10T03:31:50.170Z,24
2022-09-10T03:32:50.167Z,24
2022-09-10T03:33:50.155Z,24
2022-09-10T03:34:50.143Z,24
2022-09-10T03:35:50.138Z,24
2022-09-10T03:36:50.118Z,24
2022-09-10T03:37:50.111Z,24
2022-09-10T03:38:50.099Z,24
2022-09-10T03:39:50.099Z,24
2022-09-10T03:40:50.076Z,24
2022-09-10T03:41:50.064Z,24
2022-09-10T03:42:50.058Z,24
2022-09-10T03:43:50.048Z,24
2022-09-10T03:44:50.033Z,24
2022-09-10T03:45:50.031Z,24
2022-09-10T03:46:50.013Z,24
2022-09-10T03:47:50.014Z,24
2022-09-10T03:48:49.993Z,24
2022-09-10T03:49:49.994Z,24
2022-09-10T03:50:49.974Z,24
2022-09-10T03:51:49.958Z,24
2022-09-10T03:52:49.950Z,24
2022-09-10T03:53:49.944Z,24
2022-09-10T03:54:49.935Z,24
2022-09-10T03:55:49.915Z,24
2022-09-10T03:56:49.917Z,24
2022-09-10T03:57:49.900Z,32
2022-09-10T03:58:49.886Z,24
2022-09-10T03:59:49.874Z,24
2022-09-10T04:00:49.873Z,24
2022-09-10T04:01:49.863Z,24
2022-09-10T04:02:49.845Z,28
2022-09-10T04:03:49.831Z,24
2022-09-10T04:04:49.828Z,28
2022-09-10T04:05:49.815Z,24
2022-09-10T04:06:49.799Z,24
2022-09-10T04:07:49.788Z,24
2022-09-10T04:08:49.790Z,24
2022-09-10T04:09:49.772Z,24
2022-09-10T04:10:49.761Z,24
2022-09-10T04:11:49.817Z,28
2022-09-10T04:12:49.751Z,28
2022-09-10T04:13:49.750Z,28
2022-09-10T04:14:49.719Z,28
2022-09-10T04:15:49.712Z,28
2022-09-10T04:16:49.720Z,28
2022-09-10T04:17:49.683Z,28
2022-09-10T04:18:49.671Z,24
2022-09-10T04:19:49.699Z,24
2022-09-10T04:20:49.649Z,24
2022-09-10T04:21:49.649Z,24
2022-09-10T04:22:49.633Z,24
2022-09-10T04:23:49.722Z,24
2022-09-10T04:24:49.661Z,28
2022-09-10T04:25:49.607Z,28
2022-09-10T04:26:49.591Z,28
2022-09-10T04:27:49.577Z,28
2022-09-10T04:28:49.575Z,28
2022-09-10T04:29:49.555Z,28
2022-09-10T04:30:49.546Z,32
2022-09-10T04:31:49.555Z,32
2022-09-10T04:32:49.529Z,24
2022-09-10T04:33:49.514Z,24
2022-09-10T04:34:49.510Z,28
2022-09-10T04:35:49.493Z,28
2022-09-10T04:36:49.480Z,32
2022-09-10T04:37:49.476Z,36
2022-09-10T04:38:49.472Z,40
2022-09-10T04:39:49.446Z,48
2022-09-10T04:40:49.438Z,52
2022-09-10T04:41:49.426Z,56
2022-09-10T04:42:49.420Z,64
2022-09-10T04:43:49.427Z,68
2022-09-10T04:44:49.407Z,76
2022-09-10T04:45:49.397Z,84
2022-09-10T04:46:49.383Z,92
2022-09-10T04:47:49.362Z,104
2022-09-10T04:48:49.377Z,116
2022-09-10T04:49:49.356Z,124
2022-09-10T04:50:49.340Z,136
2022-09-10T04:51:49.334Z,140
2022-09-10T04:52:49.310Z,156
2022-09-10T04:53:49.319Z,160
2022-09-10T04:54:49.296Z,160
2022-09-10T04:55:49.300Z,168
2022-09-10T04:56:49.272Z,176
2022-09-10T04:57:49.271Z,184
2022-09-10T04:58:49.275Z,196
2022-09-10T04:59:49.242Z,208
2022-09-10T05:00:49.231Z,224
2022-09-10T05:01:49.237Z,232
2022-09-10T05:02:49.226Z,240
2022-09-10T05:03:49.205Z,248
2022-09-10T05:04:49.190Z,260
2022-09-10T05:05:49.173Z,276
2022-09-10T05:06:49.163Z,292
2022-09-10T05:07:49.153Z,308
2022-09-10T05:08:49.144Z,328
2022-09-10T05:09:49.138Z,336
2022-09-10T05:10:49.119Z,340
2022-09-10T05:11:49.108Z,352
2022-09-10T05:12:49.107Z,364
2022-09-10T05:13:49.091Z,372
2022-09-10T05:14:49.075Z,380
2022-09-10T05:15:49.063Z,380
2022-09-10T05:16:49.052Z,380
2022-09-10T05:17:49.042Z,376
2022-09-10T05:18:49.042Z,376
2022-09-10T05:19:49.019Z,388
2022-09-10T05:20:49.037Z,396
2022-09-10T05:21:49.001Z,416
2022-09-10T05:22:48.987Z,424
2022-09-10T05:23:48.988Z,440
2022-09-10T05:24:48.986Z,476
2022-09-10T05:25:48.957Z,500
2022-09-10T05:26:48.951Z,524
2022-09-10T05:27:48.937Z,600
2022-09-10T05:28:48.930Z,644
2022-09-10T05:29:48.915Z,644
2022-09-10T05:30:48.908Z,664
2022-09-10T05:31:48.897Z,692
2022-09-10T05:32:48.899Z,692
2022-09-10T05:33:48.873Z,668
2022-09-10T05:34:48.864Z,668
2022-09-10T05:35:48.859Z,700
2022-09-10T05:36:48.848Z,744
2022-09-10T05:37:48.831Z,776
2022-09-10T05:38:48.831Z,780
2022-09-10T05:39:48.827Z,812
2022-09-10T05:40:48.804Z,868
2022-09-10T05:41:48.800Z,912
2022-09-10T05:42:48.783Z,952
2022-09-10T05:43:48.774Z,992
2022-09-10T05:44:48.772Z,1036
2022-09-10T05:45:48.752Z,1092
2022-09-10T05:46:48.757Z,1152
2022-09-10T05:47:48.730Z,1256
2022-09-10T05:48:48.719Z,1368
2022-09-10T05:49:48.707Z,1400
2022-09-10T05:50:48.719Z,1400
2022-09-10T05:51:48.728Z,1432
2022-09-10T05:52:48.697Z,1484
2022-09-10T05:53:48.688Z,1548
2022-09-10T05:54:48.708Z,1620
2022-09-10T05:55:48.717Z,1684
2022-09-10T05:56:48.654Z,1784
2022-09-10T05:57:48.623Z,1728
2022-09-10T05:58:48.659Z,1576
2022-09-10T05:59:48.677Z,1372
2022-09-10T06:00:48.681Z,1204
2022-09-10T06:01:48.658Z,1124
2022-09-10T06:02:48.570Z,1084
2022-09-10T06:03:48.604Z,1072
2022-09-10T06:04:48.551Z,1076
2022-09-10T06:05:48.541Z,1108
2022-09-10T06:06:48.527Z,1160
2022-09-10T06:07:48.519Z,1244
2022-09-10T06:08:48.502Z,1328
2022-09-10T06:09:48.492Z,1404
2022-09-10T06:10:48.499Z,1444
2022-09-10T06:11:48.500Z,1472
2022-09-10T06:12:48.466Z,1528
2022-09-10T06:13:48.467Z,1628
2022-09-10T06:14:48.442Z,1748
2022-09-10T06:15:48.435Z,1852
2022-09-10T06:16:48.427Z,1972
2022-09-10T06:17:48.423Z,2132
2022-09-10T06:18:48.398Z,2280
2022-09-10T06:19:48.393Z,2416
2022-09-10T06:20:48.386Z,2516
2022-09-10T06:21:48.393Z,2636
2022-09-10T06:22:48.361Z,2736
2022-09-10T06:23:48.353Z,2828
2022-09-10T06:24:48.384Z,2868
2022-09-10T06:25:48.365Z,2800
2022-09-10T06:26:48.338Z,2740
2022-09-10T06:27:48.312Z,2592
2022-09-10T06:28:49.155Z,2468
2022-09-10T06:29:48.319Z,2376
2022-09-10T06:30:48.334Z,2328
2022-09-10T06:31:48.310Z,2360
2022-09-10T06:32:48.300Z,2412
2022-09-10T06:33:48.265Z,2436
2022-09-10T06:34:48.303Z,2444
2022-09-10T06:35:48.222Z,2476
2022-09-10T06:36:48.291Z,2560
2022-09-10T06:37:48.275Z,2620
2022-09-10T06:38:48.215Z,2596
2022-09-10T06:39:48.258Z,2592
2022-09-10T06:40:48.176Z,2492
2022-09-10T06:41:48.224Z,2440
2022-09-10T06:42:48.154Z,2396
2022-09-10T06:43:48.138Z,2428
2022-09-10T06:44:48.133Z,2608
2022-09-10T06:45:48.143Z,2864
2022-09-10T06:46:48.120Z,3224
2022-09-10T06:48:48.110Z,3440
2022-09-10T06:49:48.077Z,3424
2022-09-10T06:50:48.128Z,3404
2022-09-10T06:51:48.060Z,3484
2022-09-10T06:52:48.070Z,3644
2022-09-10T06:53:48.032Z,3716
2022-09-10T06:54:48.020Z,3800
2022-09-10T06:55:48.009Z,3844
2022-09-10T06:56:48.009Z,3936
2022-09-10T06:57:47.991Z,3976
2022-09-10T06:58:47.984Z,3836
2022-09-10T06:59:47.973Z,3772
2022-09-10T07:00:47.956Z,3652
2022-09-10T07:01:47.947Z,3496
2022-09-10T07:02:47.942Z,3384
2022-09-10T07:03:47.949Z,3244
2022-09-10T07:04:47.916Z,3084
2022-09-10T07:05:47.916Z,2844
2022-09-10T07:06:47.901Z,2868
2022-09-10T07:07:47.894Z,2960
2022-09-10T07:08:47.881Z,2756
2022-09-10T07:09:47.862Z,2648
2022-09-10T07:10:47.854Z,2564
2022-09-10T07:11:47.842Z,2716
2022-09-10T07:12:47.830Z,2944
2022-09-10T07:13:47.826Z,3364
2022-09-10T07:14:47.836Z,3436
2022-09-10T07:15:47.804Z,3352
2022-09-10T07:16:47.790Z,3684
2022-09-10T07:17:47.781Z,4292
2022-09-10T07:18:47.768Z,4004
2022-09-10T07:19:47.762Z,3968
2022-09-10T07:20:47.753Z,4368
2022-09-10T07:21:47.743Z,4448
2022-09-10T07:22:47.729Z,4736
2022-09-10T07:23:47.724Z,4324
2022-09-10T07:24:47.708Z,4416
2022-09-10T07:25:47.698Z,4512
2022-09-10T07:26:47.687Z,4924
2022-09-10T07:27:47.684Z,5640
2022-09-10T07:28:47.666Z,4968
2022-09-10T07:29:47.678Z,4856
2022-09-10T07:30:47.643Z,5452
2022-09-10T07:31:47.653Z,5640
2022-09-10T07:32:47.629Z,6416
2022-09-10T07:33:47.622Z,9328
2022-09-10T07:34:47.603Z,6504
2022-09-10T07:35:47.598Z,6644
2022-09-10T07:36:47.599Z,6140
2022-09-10T07:37:47.588Z,5448
2022-09-10T07:38:47.556Z,4928
2022-09-10T07:39:47.552Z,4768
2022-09-10T07:40:47.543Z,4836
2022-09-10T07:41:47.529Z,4840
2022-09-10T07:42:47.520Z,5060
2022-09-10T07:43:47.510Z,5184
2022-09-10T07:44:47.503Z,5260
2022-09-10T07:45:47.481Z,5312
2022-09-10T07:46:47.477Z,5080
2022-09-10T07:47:47.463Z,4964
2022-09-10T07:48:47.453Z,4988
2022-09-10T07:49:47.468Z,5432
2022-09-10T07:50:47.434Z,5444
2022-09-10T07:51:47.440Z,5368
2022-09-10T07:52:47.412Z,5256
2022-09-10T07:53:47.415Z,5056
2022-09-10T07:54:47.393Z,4884
2022-09-10T07:55:47.378Z,4856
2022-09-10T07:56:47.382Z,4684
2022-09-10T07:57:47.357Z,4428
2022-09-10T07:58:47.354Z,4576
2022-09-10T07:59:47.345Z,6036
2022-09-10T08:00:47.374Z,7008
2022-09-10T08:01:48.163Z,10352
2022-09-10T08:02:47.310Z,7612
2022-09-10T08:03:47.337Z,10692
2022-09-10T08:04:47.291Z,8456
2022-09-10T08:05:47.287Z,9476
2022-09-10T08:06:47.270Z,6976
2022-09-10T08:07:47.249Z,6884
2022-09-10T08:08:47.240Z,7316
2022-09-10T08:09:47.239Z,7780
2022-09-10T08:10:47.222Z,8724
2022-09-10T08:11:47.214Z,9020
2022-09-10T08:12:47.198Z,9412
2022-09-10T08:13:47.188Z,10752
2022-09-10T08:14:47.176Z,8188
2022-09-10T08:15:47.173Z,7248
2022-09-10T08:16:47.156Z,6088
2022-09-10T08:17:47.144Z,6028
2022-09-10T08:18:47.143Z,5896
2022-09-10T08:19:47.137Z,5592
2022-09-10T08:20:47.115Z,5460
2022-09-10T08:21:47.103Z,5192
2022-09-10T08:22:47.125Z,4776
2022-09-10T08:23:47.081Z,4468
2022-09-10T08:24:47.069Z,4336
2022-09-10T08:25:47.056Z,4224
2022-09-10T08:26:47.050Z,3928
2022-09-10T08:27:47.040Z,3660
2022-09-10T08:28:47.031Z,3212
2022-09-10T08:29:47.037Z,2820
2022-09-10T08:30:47.011Z,2624
2022-09-10T08:31:46.999Z,2424
2022-09-10T08:32:46.984Z,2148
2022-09-10T08:33:46.976Z,1848
2022-09-10T08:34:46.964Z,1724
2022-09-10T08:35:46.990Z,1632
2022-09-10T08:36:46.946Z,1556
2022-09-10T08:37:46.947Z,1560
2022-09-10T08:38:46.923Z,1728
2022-09-10T08:39:46.913Z,1960
2022-09-10T08:40:46.901Z,2148
2022-09-10T08:41:46.900Z,2148
2022-09-10T08:42:46.879Z,2048
2022-09-10T08:43:46.869Z,2012
2022-09-10T08:44:46.860Z,2092
2022-09-10T08:45:46.853Z,2096
2022-09-10T08:46:46.833Z,2024
2022-09-10T08:47:46.865Z,2048
2022-09-10T08:48:46.825Z,2024
2022-09-10T08:49:46.805Z,1936
2022-09-10T08:50:46.800Z,1932
2022-09-10T08:51:46.789Z,2036
2022-09-10T08:52:46.775Z,2064
2022-09-10T08:53:46.781Z,2044
2022-09-10T08:54:46.755Z,2072
2022-09-10T08:55:46.740Z,2156
2022-09-10T08:56:46.751Z,2264
2022-09-10T08:57:46.726Z,2412
2022-09-10T08:58:46.717Z,2480
2022-09-10T08:59:46.703Z,2596
2022-09-10T09:00:46.707Z,2872
2022-09-10T09:01:46.681Z,3096
2022-09-10T09:02:46.669Z,3452
2022-09-10T09:03:46.673Z,3872
2022-09-10T09:04:46.647Z,4108
2022-09-10T09:05:46.635Z,4548
2022-09-10T09:06:46.626Z,5184
2022-09-10T09:07:46.622Z,5680
2022-09-10T09:08:46.615Z,5900
2022-09-10T09:09:46.611Z,6144
2022-09-10T09:10:46.586Z,6320
2022-09-10T09:11:46.574Z,6344
2022-09-10T09:12:46.573Z,6408
2022-09-10T09:13:46.562Z,6276
2022-09-10T09:14:46.573Z,6020
2022-09-10T09:15:46.545Z,5796
2022-09-10T09:16:46.527Z,5564
2022-09-10T09:17:46.514Z,4936
2022-09-10T09:18:46.514Z,4396
2022-09-10T09:19:46.493Z,4520
2022-09-10T09:20:46.476Z,4856
2022-09-10T09:21:46.470Z,4952
2022-09-10T09:22:46.489Z,4852
2022-09-10T09:23:46.478Z,4976
2022-09-10T09:24:46.436Z,4888
2022-09-10T09:25:46.430Z,4220
2022-09-10T09:26:46.425Z,3832
2022-09-10T09:27:46.404Z,4192
2022-09-10T09:28:46.413Z,4844
2022-09-10T09:29:46.384Z,5088
2022-09-10T09:30:46.426Z,4620
2022-09-10T09:31:46.359Z,4336
2022-09-10T09:32:46.359Z,4352
2022-09-10T09:33:46.358Z,4696
2022-09-10T09:34:46.334Z,5080
2022-09-10T09:35:46.320Z,5224
2022-09-10T09:36:46.318Z,5144
2022-09-10T09:37:46.301Z,4916
2022-09-10T09:38:46.330Z,5632
2022-09-10T09:39:46.275Z,6240
2022-09-10T09:40:46.268Z,6668
2022-09-10T09:41:46.258Z,7240
2022-09-10T09:42:46.246Z,7256
2022-09-10T09:43:46.234Z,7780
2022-09-10T09:44:46.230Z,9060
2022-09-10T09:45:46.224Z,10628
2022-09-10T09:46:46.201Z,12580
2022-09-10T09:47:46.193Z,13860
2022-09-10T09:48:46.181Z,12956
2022-09-10T09:49:46.170Z,11604
2022-09-10T09:50:46.184Z,11072
2022-09-10T09:51:46.156Z,9588
2022-09-10T09:52:46.139Z,7740
2022-09-10T09:53:46.131Z,6116
2022-09-10T09:54:46.115Z,5200
2022-09-10T09:55:46.114Z,4552
2022-09-10T09:56:46.115Z,4056
2022-09-10T09:57:46.092Z,3756
2022-09-10T09:58:46.071Z,3532
2022-09-10T09:59:46.063Z,3732
2022-09-10T10:00:46.052Z,3864
2022-09-10T10:01:46.072Z,4320
2022-09-10T10:02:46.077Z,4652
2022-09-10T10:03:46.032Z,5020
2022-09-10T10:04:46.038Z,5756
2022-09-10T10:05:46.005Z,7008
2022-09-10T10:06:45.991Z,8888
2022-09-10T10:07:45.981Z,10900
2022-09-10T10:08:45.970Z,12756
2022-09-10T10:09:45.978Z,13648
2022-09-10T10:10:45.960Z,14300
2022-09-10T10:11:48.659Z,16432
2022-09-10T10:12:45.922Z,20096
2022-09-10T10:13:45.916Z,18656
2022-09-10T10:14:45.910Z,17344
2022-09-10T10:15:45.892Z,15344
2022-09-10T10:16:45.889Z,16256
2022-09-10T10:17:45.877Z,11896
2022-09-10T10:18:45.861Z,8972
2022-09-10T10:19:45.872Z,8924
2022-09-10T10:20:45.852Z,9604
2022-09-10T10:21:45.836Z,10768
2022-09-10T10:22:45.826Z,12120
2022-09-10T10:23:45.813Z,14188
2022-09-10T10:24:45.802Z,27264
2022-09-10T10:25:45.810Z,20448
2022-09-10T10:26:45.789Z,16748
2022-09-10T10:27:45.774Z,17728
2022-09-10T10:28:45.761Z,16452
2022-09-10T10:29:45.753Z,20160
2022-09-10T10:30:45.738Z,53664
2022-09-10T10:31:45.737Z,32352
2022-09-10T10:32:45.789Z,13068
2022-09-10T10:33:45.704Z,14836
2022-09-10T10:34:45.697Z,16620
2022-09-10T10:35:45.688Z,25760
2022-09-10T10:36:45.676Z,27744
2022-09-10T10:37:45.664Z,59072
2022-09-10T10:38:45.654Z,72864
2022-09-10T10:39:45.646Z,89344
2022-09-10T10:40:45.647Z,61536
2022-09-10T10:41:45.619Z,47488
2022-09-10T10:42:45.644Z,31360
2022-09-10T10:43:45.608Z,31200
2022-09-10T10:44:45.597Z,27776
2022-09-10T10:45:45.586Z,30528
2022-09-10T10:46:45.569Z,29728
2022-09-10T10:47:45.569Z,41632
2022-09-10T10:48:45.553Z,49568
2022-09-10T10:49:45.551Z,19104
2022-09-10T10:50:45.529Z,62592
2022-09-10T10:51:45.516Z,59328
2022-09-10T10:52:45.506Z,38048
2022-09-10T10:53:45.500Z,27072
2022-09-10T10:54:45.494Z,24416
2022-09-10T10:55:45.489Z,21632
2022-09-10T10:56:45.464Z,20384
2022-09-10T10:57:45.461Z,20704
2022-09-10T10:58:45.483Z,21984
2022-09-10T10:59:45.544Z,23584
2022-09-10T11:00:45.429Z,24960
2022-09-10T11:01:45.446Z,23712
2022-09-10T11:02:45.404Z,24416
2022-09-10T11:03:45.442Z,24000
2022-09-10T11:04:45.401Z,25728
2022-09-10T11:05:45.376Z,25376
2022-09-10T11:06:45.375Z,25504
2022-09-10T11:07:45.356Z,16472
2022-09-10T11:08:45.354Z,11388
2022-09-10T11:09:45.329Z,12972
2022-09-10T11:10:45.325Z,15124
2022-09-10T11:11:45.315Z,16752
2022-09-10T11:12:45.299Z,15892
2022-09-10T11:13:46.172Z,13036
2022-09-10T11:14:45.277Z,12532
2022-09-10T11:15:45.267Z,11408
2022-09-10T11:16:45.262Z,11012
2022-09-10T11:17:45.249Z,12020
2022-09-10T11:18:45.258Z,11876
2022-09-10T11:19:45.237Z,12040
2022-09-10T11:20:45.213Z,11884
2022-09-10T11:21:45.205Z,12588
2022-09-10T11:22:45.196Z,14712
2022-09-10T11:23:45.191Z,17296
2022-09-10T11:24:45.194Z,21504
2022-09-10T11:25:45.159Z,37088
2022-09-10T11:26:45.156Z,72928
2022-09-10T11:27:45.141Z,84864
2022-09-10T11:28:45.136Z,67008
2022-09-10T11:29:45.121Z,91328
2022-09-10T11:30:45.151Z,70848
2022-09-10T11:31:45.103Z,66592
2022-09-10T11:32:45.091Z,109024
2022-09-10T11:33:45.083Z,106080
2022-09-10T11:34:45.079Z,29696
2022-09-10T11:35:45.061Z,105632
2022-09-10T11:36:45.055Z,90208
2022-09-10T11:37:45.037Z,89728
2022-09-10T11:38:45.027Z,90432
2022-09-10T11:39:45.014Z,89856
2022-09-10T11:40:45.010Z,104320
2022-09-10T11:41:44.997Z,101984
2022-09-10T11:42:44.987Z,110752
2022-09-10T11:43:44.980Z,111776
2022-09-10T11:44:44.976Z,112704
2022-09-10T11:45:44.976Z,15432
2022-09-10T11:46:44.960Z,14460
2022-09-10T11:47:44.942Z,15688
2022-09-10T11:48:44.951Z,19104
2022-09-10T11:49:44.915Z,35392
2022-09-10T11:50:44.904Z,46528
2022-09-10T11:51:44.902Z,69664
2022-09-10T11:52:44.919Z,50784
2022-09-10T11:53:44.885Z,30400
2022-09-10T11:54:44.876Z,19840
2022-09-10T11:55:44.865Z,13012
2022-09-10T11:56:44.861Z,10452
2022-09-10T11:57:44.846Z,8724
2022-09-10T11:58:44.833Z,7448
2022-09-10T11:59:44.815Z,6484
2022-09-10T12:00:44.813Z,5876
2022-09-10T12:01:44.805Z,5796
2022-09-10T12:02:44.784Z,5280
2022-09-10T12:03:44.773Z,4892
2022-09-10T12:04:44.765Z,4388
2022-09-10T12:05:44.754Z,3940
2022-09-10T12:06:44.760Z,3784
2022-09-10T12:07:44.813Z,3656
2022-09-10T12:08:44.731Z,3632
2022-09-10T12:09:44.712Z,3612
2022-09-10T12:10:44.700Z,3484
2022-09-10T12:11:44.694Z,3540
2022-09-10T12:12:44.682Z,3704
2022-09-10T12:13:44.670Z,4092
2022-09-10T12:14:44.661Z,4716
2022-09-10T12:15:44.669Z,5836
2022-09-10T12:16:44.641Z,7388
2022-09-10T12:17:44.681Z,9916
2022-09-10T12:18:44.621Z,15828
2022-09-10T12:19:44.609Z,94400
2022-09-10T12:20:44.606Z,29312
2022-09-10T12:21:44.590Z,28864
2022-09-10T12:22:44.606Z,40960
2022-09-10T12:23:44.589Z,52992
2022-09-10T12:24:44.588Z,41536
2022-09-10T12:25:44.549Z,39168
2022-09-10T12:26:44.548Z,30080
2022-09-10T12:27:44.541Z,36544
2022-09-10T12:28:44.522Z,25824
2022-09-10T12:29:44.506Z,21472
2022-09-10T12:30:44.499Z,20352
2022-09-10T12:31:44.485Z,29056
2022-09-10T12:32:44.472Z,70368
2022-09-10T12:33:44.481Z,60064
2022-09-10T12:34:44.489Z,94432
2022-09-10T12:35:44.459Z,76288
2022-09-10T12:36:44.459Z,71808
2022-09-10T12:37:44.433Z,71968
2022-09-10T12:38:44.412Z,63232
2022-09-10T12:39:44.419Z,53184
2022-09-10T12:40:44.394Z,31840
2022-09-10T12:41:44.390Z,29472
2022-09-10T12:42:44.367Z,27584
2022-09-10T12:43:44.354Z,26304
2022-09-10T12:44:44.354Z,29088
2022-09-10T12:45:44.354Z,19424
2022-09-10T12:46:44.328Z,15108
2022-09-10T12:47:44.323Z,10804
2022-09-10T12:48:44.327Z,10848
2022-09-10T12:49:44.298Z,10560
2022-09-10T12:50:44.292Z,9296
2022-09-10T12:51:44.278Z,9072
2022-09-10T12:52:44.265Z,11788
2022-09-10T12:53:44.260Z,7732
2022-09-10T12:54:44.241Z,6064
2022-09-10T12:55:44.235Z,4756
2022-09-10T12:56:44.241Z,3628
2022-09-10T12:57:44.225Z,2944
2022-09-10T12:58:44.204Z,2508
2022-09-10T12:59:44.202Z,2048
2022-09-10T13:00:44.190Z,1860
2022-09-10T13:01:44.173Z,1748
2022-09-10T13:02:44.161Z,1696
2022-09-10T13:03:44.150Z,1728
2022-09-10T13:04:44.151Z,1860
2022-09-10T13:05:44.145Z,2348
2022-09-10T13:06:44.118Z,3364
2022-09-10T13:07:44.110Z,4336
2022-09-10T13:08:44.099Z,5124
2022-09-10T13:09:44.085Z,5460
2022-09-10T13:10:44.076Z,5196
2022-09-10T13:11:44.065Z,5216
2022-09-10T13:12:44.053Z,5296
2022-09-10T13:13:44.048Z,5460
2022-09-10T13:14:44.038Z,5540
2022-09-10T13:15:44.030Z,5528
2022-09-10T13:16:44.035Z,5516
2022-09-10T13:17:44.029Z,5528
2022-09-10T13:18:44.038Z,5756
2022-09-10T13:19:43.980Z,6264
2022-09-10T13:20:43.976Z,6976
2022-09-10T13:21:43.966Z,7804
2022-09-10T13:22:43.985Z,8312
2022-09-10T13:23:43.942Z,8844
2022-09-10T13:24:43.928Z,9288
2022-09-10T13:25:43.959Z,9484
2022-09-10T13:26:43.911Z,9516
2022-09-10T13:27:43.915Z,9528
2022-09-10T13:28:43.913Z,9588
2022-09-10T13:29:43.896Z,9628
2022-09-10T13:30:43.871Z,9496
2022-09-10T13:31:43.854Z,9308
2022-09-10T13:32:43.850Z,9504
2022-09-10T13:33:43.842Z,9840
2022-09-10T13:34:43.842Z,10108
2022-09-10T13:35:43.821Z,10252